Dialion, Arkansas
Current Conditions -  °F | °C
As of 3:53 AM on Tuesday 27 Jan 2015 (Local Time) from KPBF Reporting Station
Clear Clear  
Wind Chill: 43°   Ceiling: Unl
Heat Index: 43°   Visibility: 10mi
Dew Point: 34°   Wind: 3mph
Humidity: 71%   Direction: 260°W
Pressure: 30.02"   Gusts: NA
Location:  33.947°N, 92.1633°W
Report Text: KPBF 270953Z AUTO 26003KT 10SM CLR 06/01 A3002 RMK AO2 SLP165 T00610011
Loading
Personal Weather Stations






























Interactive Weather Map New forecast layout! Learn more

10-Day Weather Forecast

Advertisements
Track Severe Weather on mobile